Mato Rico, Brazil
Current Conditions -  °F | °C
As of 12:30 AM on Friday 21 Nov 2014 (Local Time) from SBCA Reporting Station
Few Clouds Few Clouds  
Wind Chill: 64°   Ceiling: Unl
Heat Index: 64°   Visibility: 6mi
Dew Point: 52°   Wind: 9mph
Humidity: 64%   Direction: 50°NE
Pressure: 29.97"   Gusts: NA
Location:  24.71°S, 52.15°W
Report Text: SBCA 210230Z 05008KT 9999 FEW040 18/11 Q1015
Loading
Personal Weather Stations






























Interactive Weather Map New forecast layout! Learn more

10-Day Weather Forecast

Advertisements
Track Severe Weather on mobile